createdAt,value
2017-07-11T00:00:26.113Z,20.23
2017-07-11T00:02:53.563Z,20.24
2017-07-11T00:05:20.907Z,20.06
2017-07-11T00:07:48.299Z,19.99
2017-07-11T00:10:15.700Z,20.02
2017-07-11T00:12:43.100Z,20.04
2017-07-11T00:15:10.500Z,20.05
2017-07-11T00:17:37.891Z,19.89
2017-07-11T00:20:05.303Z,19.71
2017-07-11T00:22:32.682Z,19.48
2017-07-11T00:25:00.095Z,19.40
2017-07-11T00:27:27.484Z,19.50
2017-07-11T00:29:55.210Z,19.45
2017-07-11T00:32:22.732Z,19.47
2017-07-11T00:34:50.123Z,19.53
2017-07-11T00:37:17.526Z,19.50
2017-07-11T00:39:44.928Z,19.43
2017-07-11T00:42:12.320Z,19.44
2017-07-11T00:44:39.715Z,19.32
2017-07-11T00:47:07.113Z,19.30
2017-07-11T00:49:34.504Z,19.31
2017-07-11T00:52:01.904Z,19.28
2017-07-11T00:54:29.292Z,19.24
2017-07-11T00:56:56.696Z,19.20
2017-07-11T00:59:24.094Z,19.28
2017-07-11T01:01:51.495Z,19.25
2017-07-11T01:04:18.896Z,19.27
2017-07-11T01:06:46.296Z,19.18
2017-07-11T01:09:13.686Z,19.12
2017-07-11T01:11:41.088Z,19.03
2017-07-11T01:14:08.490Z,19.01
2017-07-11T01:16:35.888Z,19.07
2017-07-11T01:19:03.291Z,19.10
2017-07-11T01:21:30.688Z,19.02
2017-07-11T01:23:58.087Z,18.98
2017-07-11T01:26:25.502Z,18.91
2017-07-11T01:28:52.897Z,19.01
2017-07-11T01:31:20.293Z,18.92
2017-07-11T01:33:47.697Z,19.03
2017-07-11T01:36:15.103Z,19.13
2017-07-11T01:38:42.510Z,19.08
2017-07-11T01:41:09.899Z,19.12
2017-07-11T01:43:37.295Z,19.11
2017-07-11T01:46:04.702Z,19.14
2017-07-11T01:48:32.112Z,19.18
2017-07-11T01:50:59.502Z,19.05
2017-07-11T01:53:26.900Z,19.10
2017-07-11T01:55:54.295Z,19.25
2017-07-11T01:58:21.690Z,19.26
2017-07-11T02:00:49.079Z,19.33
2017-07-11T02:03:16.475Z,19.37
2017-07-11T02:05:43.869Z,19.39
2017-07-11T02:08:11.272Z,19.43
2017-07-11T02:10:38.669Z,19.45
2017-07-11T02:13:06.071Z,19.37
2017-07-11T02:15:33.462Z,19.35
2017-07-11T02:18:00.872Z,19.36
2017-07-11T02:20:28.244Z,19.44
2017-07-11T02:22:55.644Z,19.42
2017-07-11T02:25:23.030Z,19.31
2017-07-11T02:27:50.505Z,19.32
2017-07-11T02:30:17.885Z,19.30
2017-07-11T02:32:45.288Z,19.40
2017-07-11T02:35:12.687Z,19.36
2017-07-11T02:37:40.079Z,19.23
2017-07-11T02:40:07.479Z,19.19
2017-07-11T02:42:34.879Z,19.23
2017-07-11T02:45:02.275Z,19.25
2017-07-11T02:47:29.683Z,19.30
2017-07-11T02:49:57.085Z,19.20
2017-07-11T02:52:24.475Z,19.16
2017-07-11T02:54:51.863Z,19.25
2017-07-11T02:57:19.256Z,19.34
2017-07-11T02:59:46.650Z,19.43
2017-07-11T03:02:14.039Z,19.49
2017-07-11T03:04:41.436Z,19.52
2017-07-11T03:07:08.827Z,19.45
2017-07-11T03:09:36.526Z,19.51
2017-07-11T03:12:03.909Z,19.50
2017-07-11T03:14:31.306Z,19.56
2017-07-11T03:16:58.711Z,19.54
2017-07-11T03:19:26.113Z,19.51
2017-07-11T03:21:53.512Z,19.55
2017-07-11T03:24:20.917Z,19.65
2017-07-11T03:26:48.300Z,19.70
2017-07-11T03:29:15.698Z,19.69
2017-07-11T03:31:43.095Z,19.55
2017-07-11T03:34:10.509Z,19.45
2017-07-11T03:36:37.895Z,19.34
2017-07-11T03:39:05.302Z,19.43
2017-07-11T03:41:32.700Z,19.29
2017-07-11T03:44:00.099Z,19.39
2017-07-11T03:46:27.491Z,19.44
2017-07-11T03:48:54.883Z,19.49
2017-07-11T03:51:22.275Z,19.62
2017-07-11T03:53:49.673Z,19.70
2017-07-11T03:56:17.064Z,19.75
2017-07-11T03:58:44.724Z,19.82
2017-07-11T04:01:12.168Z,19.88
2017-07-11T04:03:39.569Z,19.97
2017-07-11T04:06:06.980Z,19.95
2017-07-11T04:08:34.407Z,19.88
2017-07-11T04:11:01.798Z,19.90
2017-07-11T04:13:29.195Z,19.91
2017-07-11T04:15:56.620Z,19.97
2017-07-11T04:18:24.016Z,20.02
2017-07-11T04:20:51.424Z,20.08
2017-07-11T04:23:18.823Z,20.10
2017-07-11T04:25:46.232Z,20.16
2017-07-11T04:28:13.634Z,20.18
2017-07-11T04:30:41.067Z,20.19
2017-07-11T04:33:08.458Z,20.25
2017-07-11T04:35:35.863Z,20.22
2017-07-11T04:38:03.498Z,20.27
2017-07-11T04:40:30.928Z,20.23
2017-07-11T04:42:58.323Z,20.29
2017-07-11T04:45:25.990Z,20.27
2017-07-11T04:47:53.397Z,20.19
2017-07-11T04:50:20.872Z,20.23
2017-07-11T04:52:48.347Z,20.12
2017-07-11T04:55:15.952Z,20.02
2017-07-11T04:57:43.394Z,20.11
2017-07-11T05:00:10.819Z,20.13
2017-07-11T05:02:38.216Z,20.12
2017-07-11T05:05:05.683Z,20.17
2017-07-11T05:07:33.091Z,20.21
2017-07-11T05:10:00.506Z,20.28
2017-07-11T05:12:27.926Z,20.33
2017-07-11T05:14:55.329Z,20.26
2017-07-11T05:17:22.727Z,20.24
2017-07-11T05:19:50.148Z,20.25
2017-07-11T05:22:17.558Z,20.23
2017-07-11T05:24:44.957Z,20.28
2017-07-11T05:27:12.368Z,20.31
2017-07-11T05:29:39.998Z,20.21
2017-07-11T05:32:07.659Z,20.24
2017-07-11T05:34:35.082Z,20.17
2017-07-11T05:37:02.498Z,20.14
2017-07-11T05:39:29.894Z,20.24
2017-07-11T05:41:57.320Z,20.07
2017-07-11T05:44:24.943Z,20.04
2017-07-11T05:46:52.360Z,19.96
2017-07-11T05:49:19.767Z,20.08
2017-07-11T05:51:47.164Z,20.13
2017-07-11T05:54:14.555Z,20.12
2017-07-11T05:56:41.963Z,20.18
2017-07-11T05:59:09.380Z,20.20
2017-07-11T06:01:36.806Z,20.24
2017-07-11T06:04:04.201Z,20.31
2017-07-11T06:06:31.607Z,20.28
2017-07-11T06:08:59.007Z,20.28
2017-07-11T06:11:26.411Z,20.27
2017-07-11T06:13:53.822Z,20.31
2017-07-11T06:16:21.224Z,20.30
2017-07-11T06:18:48.628Z,20.29
2017-07-11T06:21:16.039Z,20.41
2017-07-11T06:23:43.450Z,20.38
2017-07-11T06:26:10.855Z,20.29
2017-07-11T06:28:38.248Z,20.34
2017-07-11T06:31:05.659Z,20.23
2017-07-11T06:33:33.049Z,20.21
2017-07-11T06:36:00.475Z,20.24
2017-07-11T06:38:27.875Z,20.22
2017-07-11T06:40:55.528Z,20.20
2017-07-11T06:43:22.927Z,20.24
2017-07-11T06:45:50.327Z,20.27
2017-07-11T06:48:17.741Z,20.30
2017-07-11T06:50:45.139Z,20.40
2017-07-11T06:53:12.548Z,20.43
2017-07-11T06:55:39.947Z,20.56
2017-07-11T06:58:07.350Z,20.66
2017-07-11T07:00:34.752Z,20.72
2017-07-11T07:03:02.160Z,20.83
2017-07-11T07:05:29.567Z,20.83
2017-07-11T07:07:56.970Z,20.92
2017-07-11T07:10:24.378Z,20.91
2017-07-11T07:12:51.802Z,20.86
2017-07-11T07:15:19.206Z,20.85
2017-07-11T07:17:46.615Z,20.94
2017-07-11T07:20:14.014Z,21.03
2017-07-11T07:22:41.422Z,21.08
2017-07-11T07:25:08.854Z,21.12
2017-07-11T07:27:36.239Z,21.16
2017-07-11T07:30:03.639Z,21.18
2017-07-11T07:32:31.047Z,21.23
2017-07-11T07:34:58.750Z,21.31
2017-07-11T07:37:26.159Z,21.31
2017-07-11T07:39:53.571Z,21.28
2017-07-11T07:42:20.976Z,21.39
2017-07-11T07:44:48.391Z,21.41
2017-07-11T07:47:15.801Z,21.43
2017-07-11T07:49:43.203Z,21.36
2017-07-11T07:52:10.611Z,21.46
2017-07-11T07:54:38.016Z,21.54
2017-07-11T07:57:05.423Z,21.56
2017-07-11T07:59:32.833Z,21.54
2017-07-11T08:02:00.226Z,21.60
2017-07-11T08:04:27.635Z,21.63
2017-07-11T08:06:55.039Z,21.52
2017-07-11T08:09:22.448Z,21.44
2017-07-11T08:11:49.852Z,21.50
2017-07-11T08:14:17.264Z,21.55
2017-07-11T08:16:46.584Z,21.49
2017-07-11T08:19:14.000Z,21.38
2017-07-11T08:21:41.433Z,21.43
2017-07-11T08:24:08.842Z,21.50
2017-07-11T08:26:36.256Z,21.55
2017-07-11T08:29:03.681Z,21.56
2017-07-11T08:31:31.083Z,21.60
2017-07-11T08:33:58.485Z,21.54
2017-07-11T08:36:25.886Z,21.57
2017-07-11T08:38:53.297Z,21.61
2017-07-11T08:41:20.705Z,21.65
2017-07-11T08:43:48.100Z,21.71
2017-07-11T08:46:15.506Z,21.70
2017-07-11T08:48:42.911Z,21.77
2017-07-11T08:51:10.315Z,21.82
2017-07-11T08:53:37.718Z,21.80
2017-07-11T08:56:05.125Z,21.92
2017-07-11T08:58:32.523Z,21.99
2017-07-11T09:00:59.928Z,22.00
2017-07-11T09:03:27.332Z,22.11
2017-07-11T09:05:54.744Z,22.07
2017-07-11T09:08:22.152Z,22.08
2017-07-11T09:10:49.808Z,22.12
2017-07-11T09:13:17.214Z,22.20
2017-07-11T09:15:44.624Z,22.33
2017-07-11T09:18:12.022Z,22.41
2017-07-11T09:20:39.427Z,22.39
2017-07-11T09:23:06.864Z,22.28
2017-07-11T09:25:34.274Z,22.33
2017-07-11T09:28:01.700Z,22.41
2017-07-11T09:30:29.107Z,22.44
2017-07-11T09:32:56.503Z,22.54
2017-07-11T09:35:23.918Z,22.55
2017-07-11T09:37:51.316Z,22.68
2017-07-11T09:40:18.724Z,22.68
2017-07-11T09:42:46.130Z,22.70
2017-07-11T09:45:13.535Z,22.70
2017-07-11T09:47:40.936Z,22.71
2017-07-11T09:50:08.343Z,22.77
2017-07-11T09:52:35.749Z,22.86
2017-07-11T09:55:03.152Z,22.90
2017-07-11T09:57:30.548Z,22.94
2017-07-11T09:59:58.283Z,23.08
2017-07-11T10:02:25.684Z,23.19
2017-07-11T10:04:53.092Z,23.24
2017-07-11T10:07:20.495Z,23.42
2017-07-11T10:09:47.905Z,23.50
2017-07-11T10:12:15.298Z,23.54
2017-07-11T10:14:42.703Z,23.46
2017-07-11T10:17:10.104Z,23.41
2017-07-11T10:19:37.512Z,23.53
2017-07-11T10:22:04.911Z,23.70
2017-07-11T10:24:32.307Z,23.73
2017-07-11T10:26:59.831Z,23.68
2017-07-11T10:29:27.236Z,23.73
2017-07-11T10:31:54.659Z,23.78
2017-07-11T10:34:22.068Z,23.73
2017-07-11T10:36:49.467Z,23.82
2017-07-11T10:39:16.876Z,23.86
2017-07-11T10:41:44.309Z,23.83
2017-07-11T10:44:14.294Z,23.76
2017-07-11T10:46:41.699Z,23.76
2017-07-11T10:49:09.116Z,23.67
2017-07-11T10:51:36.508Z,23.75
2017-07-11T10:54:03.922Z,23.74
2017-07-11T10:56:31.317Z,23.72
2017-07-11T10:58:58.732Z,23.63
2017-07-11T11:01:26.135Z,23.61
2017-07-11T11:03:53.543Z,23.35
2017-07-11T11:06:20.940Z,23.23
2017-07-11T11:08:48.439Z,23.21
2017-07-11T11:11:15.845Z,23.30
2017-07-11T11:13:43.248Z,23.36
2017-07-11T11:16:10.677Z,23.28
2017-07-11T11:18:38.081Z,23.33
2017-07-11T11:21:05.491Z,23.38
2017-07-11T11:23:32.908Z,23.37
2017-07-11T11:26:00.319Z,23.41
2017-07-11T11:28:27.711Z,23.37
2017-07-11T11:30:55.120Z,23.29
2017-07-11T11:33:22.736Z,23.28
2017-07-11T11:35:50.143Z,23.38
2017-07-11T11:38:17.536Z,23.34
2017-07-11T11:40:44.960Z,23.43
2017-07-11T11:43:12.358Z,23.60
2017-07-11T11:45:39.774Z,23.82
2017-07-11T11:48:07.214Z,23.74
2017-07-11T11:50:34.628Z,23.72
2017-07-11T11:53:02.029Z,23.74
2017-07-11T11:55:29.431Z,23.78
2017-07-11T11:57:56.848Z,23.67
2017-07-11T12:00:24.467Z,23.79
2017-07-11T12:02:51.864Z,23.76
2017-07-11T12:05:19.279Z,23.88
2017-07-11T12:07:46.680Z,23.98
2017-07-11T12:10:14.300Z,23.93
2017-07-11T12:12:41.719Z,23.88
2017-07-11T12:15:10.303Z,23.83
2017-07-11T12:17:42.633Z,23.78
2017-07-11T12:20:11.327Z,23.85
2017-07-11T12:22:38.719Z,23.72
2017-07-11T12:25:06.135Z,23.76
2017-07-11T12:27:33.531Z,23.85
2017-07-11T12:30:00.947Z,23.99
2017-07-11T12:32:28.349Z,24.05
2017-07-11T12:34:55.763Z,24.17
2017-07-11T12:37:23.241Z,24.15
2017-07-11T12:39:50.655Z,24.14
2017-07-11T12:42:18.111Z,24.22
2017-07-11T12:44:45.507Z,24.26
2017-07-11T12:47:12.923Z,24.24
2017-07-11T12:49:40.320Z,24.21
2017-07-11T12:52:07.728Z,24.34
2017-07-11T12:54:35.127Z,24.36
2017-07-11T12:57:02.540Z,24.41
2017-07-11T12:59:29.940Z,24.54
2017-07-11T13:01:57.347Z,24.66
2017-07-11T13:04:24.748Z,24.69
2017-07-11T13:06:52.159Z,24.58
2017-07-11T13:09:19.569Z,24.50
2017-07-11T13:11:46.959Z,24.52
2017-07-11T13:14:14.361Z,24.53
2017-07-11T13:16:41.789Z,24.50
2017-07-11T13:19:09.990Z,24.50
2017-07-11T13:21:37.405Z,24.50
2017-07-11T13:24:04.802Z,24.44
2017-07-11T13:26:32.243Z,24.48
2017-07-11T13:28:59.639Z,24.49
2017-07-11T13:31:27.071Z,24.55
2017-07-11T13:33:54.484Z,24.58
2017-07-11T13:36:21.908Z,24.59
2017-07-11T13:38:49.312Z,24.59
2017-07-11T13:41:16.716Z,24.67
2017-07-11T13:43:44.124Z,24.73
2017-07-11T13:46:11.539Z,24.73
2017-07-11T13:48:38.948Z,24.79
2017-07-11T13:51:06.349Z,24.93
2017-07-11T13:53:33.752Z,24.99
2017-07-11T13:56:01.180Z,25.04
2017-07-11T13:58:28.573Z,24.93
2017-07-11T14:00:55.968Z,24.98
2017-07-11T14:03:23.422Z,25.01
2017-07-11T14:05:50.847Z,24.86
2017-07-11T14:08:18.266Z,24.91
2017-07-11T14:10:45.667Z,25.06
2017-07-11T14:13:13.082Z,25.00
2017-07-11T14:15:40.481Z,25.03
2017-07-11T14:18:07.883Z,25.01
2017-07-11T14:20:35.284Z,25.03
2017-07-11T14:23:02.703Z,25.12
2017-07-11T14:25:30.103Z,25.30
2017-07-11T14:27:57.511Z,25.40
2017-07-11T14:30:24.908Z,25.53
2017-07-11T14:32:52.316Z,25.61
2017-07-11T14:35:19.717Z,25.65
2017-07-11T14:37:47.132Z,25.55
2017-07-11T14:40:14.528Z,25.49
2017-07-11T14:42:41.944Z,25.46
2017-07-11T14:45:09.344Z,25.46
2017-07-11T14:47:36.748Z,25.51
2017-07-11T14:50:04.153Z,25.44
2017-07-11T14:52:31.560Z,25.44
2017-07-11T14:54:58.960Z,25.42
2017-07-11T14:57:26.364Z,25.31
2017-07-11T14:59:53.764Z,25.18
2017-07-11T15:02:21.171Z,25.23
2017-07-11T15:04:48.571Z,25.11
2017-07-11T15:07:15.984Z,25.06
2017-07-11T15:09:43.376Z,25.01
2017-07-11T15:12:10.776Z,24.87
2017-07-11T15:14:38.178Z,23.90
2017-07-11T15:17:05.812Z,23.03
2017-07-11T15:19:33.207Z,22.01
2017-07-11T15:22:00.603Z,21.48
2017-07-11T15:24:28.000Z,21.17
2017-07-11T15:26:55.403Z,20.93
2017-07-11T15:29:22.796Z,20.62
2017-07-11T15:31:50.189Z,20.59
2017-07-11T15:34:17.605Z,20.53
2017-07-11T15:36:44.987Z,20.47
2017-07-11T15:39:12.395Z,20.26
2017-07-11T15:41:39.787Z,20.00
2017-07-11T15:44:07.204Z,20.05
2017-07-11T15:46:34.600Z,20.13
2017-07-11T15:49:02.008Z,20.25
2017-07-11T15:51:29.404Z,20.51
2017-07-11T15:53:56.804Z,20.86
2017-07-11T15:56:24.207Z,21.19
2017-07-11T15:58:51.608Z,21.41
2017-07-11T16:01:19.025Z,21.72
2017-07-11T16:03:46.481Z,21.75
2017-07-11T16:06:13.871Z,21.78
2017-07-11T16:08:41.579Z,21.82
2017-07-11T16:11:08.975Z,21.87
2017-07-11T16:13:36.384Z,21.88
2017-07-11T16:16:03.783Z,22.00
2017-07-11T16:18:31.527Z,21.97
2017-07-11T16:20:58.910Z,22.05
2017-07-11T16:23:26.345Z,22.01
2017-07-11T16:25:53.751Z,21.94
2017-07-11T16:28:21.152Z,22.13
2017-07-11T16:30:48.796Z,22.22
2017-07-11T16:33:16.192Z,22.49
2017-07-11T16:35:43.606Z,22.46
2017-07-11T16:38:11.215Z,22.58
2017-07-11T16:40:38.631Z,22.54
2017-07-11T16:43:06.028Z,22.57
2017-07-11T16:45:33.450Z,22.41
2017-07-11T16:48:00.848Z,22.46
2017-07-11T16:50:28.255Z,22.48
2017-07-11T16:52:55.880Z,22.42
2017-07-11T16:55:23.296Z,22.41
2017-07-11T16:57:50.695Z,22.35
2017-07-11T17:00:18.120Z,22.26
2017-07-11T17:02:45.525Z,22.18
2017-07-11T17:05:12.917Z,22.23
2017-07-11T17:07:40.329Z,22.22
2017-07-11T17:10:07.723Z,22.15
2017-07-11T17:12:35.152Z,21.96
2017-07-11T17:15:02.556Z,21.91
2017-07-11T17:17:29.956Z,21.63
2017-07-11T17:19:57.365Z,21.64
2017-07-11T17:22:24.767Z,21.75
2017-07-11T17:24:52.196Z,21.78
2017-07-11T17:27:19.812Z,21.65
2017-07-11T17:29:47.211Z,21.69
2017-07-11T17:32:14.616Z,21.82
2017-07-11T17:34:42.031Z,21.82
2017-07-11T17:37:09.458Z,21.87
2017-07-11T17:39:37.067Z,21.89
2017-07-11T17:42:04.474Z,21.72
2017-07-11T17:44:31.882Z,21.64
2017-07-11T17:46:59.279Z,21.73
2017-07-11T17:49:26.997Z,21.70
2017-07-11T17:51:54.422Z,21.86
2017-07-11T17:54:21.843Z,22.05
2017-07-11T17:56:49.260Z,22.04
2017-07-11T17:59:16.652Z,22.05
2017-07-11T18:01:44.071Z,22.12
2017-07-11T18:04:11.471Z,22.09
2017-07-11T18:06:38.876Z,22.15
2017-07-11T18:09:06.286Z,22.25
2017-07-11T18:11:33.696Z,22.34
2017-07-11T18:14:01.094Z,22.47
2017-07-11T18:16:28.488Z,22.44
2017-07-11T18:18:55.912Z,22.49
2017-07-11T18:21:23.311Z,22.41
2017-07-11T18:23:50.720Z,22.43
2017-07-11T18:26:18.124Z,22.46
2017-07-11T18:28:45.524Z,22.39
2017-07-11T18:31:12.931Z,22.39
2017-07-11T18:33:40.334Z,22.32
2017-07-11T18:36:07.741Z,22.35
2017-07-11T18:38:35.146Z,22.19
2017-07-11T18:41:02.570Z,22.24
2017-07-11T18:43:29.976Z,22.10
2017-07-11T18:45:57.376Z,22.00
2017-07-11T18:48:24.775Z,21.93
2017-07-11T18:50:52.188Z,21.86
2017-07-11T18:53:19.593Z,21.86
2017-07-11T18:55:46.999Z,21.88
2017-07-11T18:58:14.424Z,21.67
2017-07-11T19:00:41.840Z,21.50
2017-07-11T19:03:09.258Z,21.35
2017-07-11T19:05:36.662Z,21.24
2017-07-11T19:08:04.055Z,21.29
2017-07-11T19:10:31.729Z,21.31
2017-07-11T19:12:59.130Z,21.42
2017-07-11T19:15:26.551Z,21.25
2017-07-11T19:17:53.948Z,21.19
2017-07-11T19:20:21.363Z,21.19
2017-07-11T19:22:48.755Z,21.28
2017-07-11T19:25:16.756Z,21.28
2017-07-11T19:27:44.396Z,21.47
2017-07-11T19:30:11.800Z,21.42
2017-07-11T19:32:39.453Z,21.51
2017-07-11T19:35:06.856Z,21.54
2017-07-11T19:37:34.263Z,21.53
2017-07-11T19:40:01.659Z,21.63
2017-07-11T19:42:29.075Z,21.54
2017-07-11T19:44:56.477Z,21.63
2017-07-11T19:47:23.920Z,21.68
2017-07-11T19:49:51.350Z,21.68
2017-07-11T19:52:19.173Z,21.71
2017-07-11T19:54:46.656Z,21.71
2017-07-11T19:57:14.064Z,21.82
2017-07-11T19:59:41.468Z,21.81
2017-07-11T20:02:08.881Z,21.82
2017-07-11T20:04:36.596Z,21.88
2017-07-11T20:07:04.004Z,21.82
2017-07-11T20:09:31.539Z,21.88
2017-07-11T20:11:59.007Z,21.90
2017-07-11T20:14:26.448Z,21.93
2017-07-11T20:16:53.859Z,21.88
2017-07-11T20:19:21.264Z,21.86
2017-07-11T20:21:48.668Z,21.82
2017-07-11T20:24:16.380Z,21.84
2017-07-11T20:26:43.803Z,21.83
2017-07-11T20:29:11.239Z,21.81
2017-07-11T20:31:38.872Z,21.73
2017-07-11T20:34:06.280Z,21.75
2017-07-11T20:36:33.882Z,21.66
2017-07-11T20:39:01.804Z,21.58
2017-07-11T20:41:29.450Z,21.48
2017-07-11T20:43:57.004Z,21.43
2017-07-11T20:46:25.938Z,21.36
2017-07-11T20:51:44.175Z,21.20
2017-07-11T20:54:11.577Z,21.09
2017-07-11T20:56:38.979Z,21.05
2017-07-11T20:59:06.379Z,20.92
2017-07-11T21:01:33.783Z,20.88
2017-07-11T21:04:01.185Z,20.76
2017-07-11T21:06:28.579Z,20.76
2017-07-11T21:08:55.999Z,20.81
2017-07-11T21:11:23.399Z,20.83
2017-07-11T21:13:50.816Z,20.90
2017-07-11T21:16:18.216Z,20.95
2017-07-11T21:18:45.629Z,21.02
2017-07-11T21:21:13.031Z,21.01
2017-07-11T21:23:40.440Z,21.04
2017-07-11T21:26:07.840Z,21.08
2017-07-11T21:28:35.254Z,21.05
2017-07-11T21:31:02.864Z,21.03
2017-07-11T21:33:30.268Z,20.96
2017-07-11T21:35:57.677Z,21.06
2017-07-11T21:38:25.088Z,20.92
2017-07-11T21:40:52.518Z,20.90
2017-07-11T21:43:19.910Z,20.96
2017-07-11T21:45:47.318Z,20.86
2017-07-11T21:48:14.719Z,20.88
2017-07-11T21:50:42.123Z,20.89
2017-07-11T21:53:09.528Z,20.93
2017-07-11T21:55:36.932Z,20.93
2017-07-11T21:58:04.343Z,20.88
2017-07-11T22:00:31.745Z,20.87
2017-07-11T22:02:59.151Z,20.83
2017-07-11T22:05:26.572Z,20.87
2017-07-11T22:07:54.001Z,20.88
2017-07-11T22:10:21.419Z,20.76
2017-07-11T22:12:48.815Z,20.87
2017-07-11T22:15:16.213Z,20.76
2017-07-11T22:17:43.620Z,20.79
2017-07-11T22:20:11.023Z,20.70
2017-07-11T22:22:38.426Z,20.68
2017-07-11T22:25:05.828Z,20.76
2017-07-11T22:27:33.223Z,20.60
2017-07-11T22:30:00.633Z,20.62
2017-07-11T22:32:28.035Z,20.60
2017-07-11T22:34:55.440Z,20.59
2017-07-11T22:37:22.844Z,20.58
2017-07-11T22:39:50.251Z,20.54
2017-07-11T22:42:17.651Z,20.43
2017-07-11T22:44:45.063Z,20.28
2017-07-11T22:47:12.503Z,20.23
2017-07-11T22:49:39.912Z,20.13
2017-07-11T22:52:07.323Z,20.04
2017-07-11T22:54:34.955Z,20.03
2017-07-11T22:57:02.355Z,19.99
2017-07-11T22:59:29.776Z,19.89
2017-07-11T23:01:57.178Z,19.85
2017-07-11T23:04:24.583Z,19.76
2017-07-11T23:06:51.984Z,19.74
2017-07-11T23:09:19.393Z,19.77
2017-07-11T23:11:46.788Z,19.62
2017-07-11T23:14:14.195Z,19.61
2017-07-11T23:16:41.591Z,19.43
2017-07-11T23:19:09.000Z,19.43
2017-07-11T23:21:36.403Z,19.44
2017-07-11T23:24:03.812Z,19.50
2017-07-11T23:26:31.208Z,19.56
2017-07-11T23:28:58.623Z,19.55
2017-07-11T23:31:26.023Z,19.58
2017-07-11T23:33:53.422Z,19.55
2017-07-11T23:36:20.824Z,19.54
2017-07-11T23:38:48.299Z,19.61
2017-07-11T23:41:15.699Z,19.61
2017-07-11T23:43:43.099Z,19.61
2017-07-11T23:46:10.508Z,19.58
2017-07-11T23:48:37.907Z,19.55
2017-07-11T23:51:05.316Z,19.51
2017-07-11T23:53:32.716Z,19.55
2017-07-11T23:56:00.115Z,19.67
2017-07-11T23:58:27.516Z,19.69
